Athens Eleftherios, Greece

2:55 PM EEST on August 28, 2014 (GMT +0300)
Artemida Attika | Change Station
CLOSE
Current Station
Personal Weather Station
Location: Artemis, Attika
Elevation: 112 ft
Nearby Weather Stations

Elev 112 ft 37.94 °N, 24.00 °E | Updated 1 second ago

Partly Cloudy
Partly Cloudy
88.5 °F
Feels Like 93 °F
N
10.7
Wind Variable Wind from NE
Gusts 15.9 mph

Today
High -- | Low -- °F
--% Chance of Precip.
Yesterday
High -- | Low -- °F
Precip. -- in
6:50 AM 7:59 PM
Waxing Crescent, 8% visible
Pressure 29.80 in
Visibility 6.2 miles
Clouds Few 3500 ft
Heat Index 93 °F
Dew Point 69 °F
Humidity 52%
Rainfall 0.00 in
Snow Depth Not available.
UV 9 out of 12
Pollen Not available.
Air Quality Not available.
Flu Activity Not available.
METAR LGAV 281120Z 05017KT 9999 FEW035 33/16 Q1009 NOSIG

More Conditions Fewer Conditions

Pressure 29.80 in
Visibility 6.2 miles
Clouds Few 3500 ft
Heat Index 93 °F
Dew Point 69 °F
Humidity 52%
Rainfall 0.00 in
Snow Depth Not available.
UV 9 out of 12
Pollen Not available.
Air Quality Not available.
Flu Activity Not available.
METAR LGAV 281120Z 05017KT 9999 FEW035 33/16 Q1009 NOSIG

More Conditions Fewer Conditions

10-Day Weather Forecast

Almanac

Astronomy

Aug. 28, 2014 Rise Set
Actual Time 6:50 AM EEST 7:59 PM EEST
Civil Twilight 6:23 AM EEST 8:27 PM EEST
Nautical Twilight 5:50 AM EEST 8:59 PM EEST
Astronomical Twilight 5:17 AM EEST 9:32 PM EEST
Moon 9:21 AM EEST 9:17 PM EEST
Length of Visible Light 14h 03m
Length of Day
13h 09m
Tomorrow will be 2m 18s shorter.
Waxing Crescent, 8% of the Moon is Illuminated
Today
Waxing Crescent
Sep 2
First Quarter
Sep 8
Full
Sep 15
Last Quarter
Sep 24
New

Yesterday's Extremes

Country Highs Country Lows

Community

WunderPhotos

Upload Photos

1,747,929 photos uploaded!

Nearby

Snow Depth

Not available.

Earthquake Activity

City Distance Mag. Time & Date
No recent earthquake activity has been reported nearby.
Minimum magnitude displayed is 2.5.

Coastal Water Temperatures

Place Temperature
No Stations Reporting

Nearby Weather Stations